sensor_id;sensor_type;location;lat;lon;timestamp;P1;durP1;ratioP1;P2;durP2;ratioP2
6434;SDS011;3250;42.694;23.278;2022-08-11T00:02:43;9.95;;;4.57;;
6434;SDS011;3250;42.694;23.278;2022-08-11T00:05:16;4.45;;;3.78;;
6434;SDS011;3250;42.694;23.278;2022-08-11T00:10:12;5.65;;;4.63;;
6434;SDS011;3250;42.694;23.278;2022-08-11T00:12:40;4.80;;;3.88;;
6434;SDS011;3250;42.694;23.278;2022-08-11T00:15:07;5.97;;;4.93;;
6434;SDS011;3250;42.694;23.278;2022-08-11T00:17:34;6.00;;;5.35;;
6434;SDS011;3250;42.694;23.278;2022-08-11T00:20:05;10.82;;;7.50;;
6434;SDS011;3250;42.694;23.278;2022-08-11T00:22:35;13.10;;;10.40;;
6434;SDS011;3250;42.694;23.278;2022-08-11T00:25:07;10.98;;;6.97;;
6434;SDS011;3250;42.694;23.278;2022-08-11T00:27:35;12.13;;;7.32;;
6434;SDS011;3250;42.694;23.278;2022-08-11T00:30:04;5.80;;;5.05;;
6434;SDS011;3250;42.694;23.278;2022-08-11T00:32:30;6.03;;;5.32;;
6434;SDS011;3250;42.694;23.278;2022-08-11T00:34:57;5.50;;;5.00;;
6434;SDS011;3250;42.694;23.278;2022-08-11T00:37:24;6.07;;;4.88;;
6434;SDS011;3250;42.694;23.278;2022-08-11T00:39:51;8.00;;;4.05;;
6434;SDS011;3250;42.694;23.278;2022-08-11T01:02:05;6.57;;;4.20;;
6434;SDS011;3250;42.694;23.278;2022-08-11T01:15:57;7.28;;;4.63;;
6434;SDS011;3250;42.694;23.278;2022-08-11T01:21:15;6.57;;;4.75;;
6434;SDS011;3250;42.694;23.278;2022-08-11T01:49:09;11.77;;;5.03;;
6434;SDS011;3250;42.694;23.278;2022-08-11T01:52:00;8.73;;;5.00;;
6434;SDS011;3250;42.694;23.278;2022-08-11T01:54:41;9.57;;;4.95;;
6434;SDS011;3250;42.694;23.278;2022-08-11T02:00:05;13.40;;;5.65;;
6434;SDS011;3250;42.694;23.278;2022-08-11T02:11:26;6.50;;;4.97;;
6434;SDS011;3250;42.694;23.278;2022-08-11T02:14:11;9.63;;;4.63;;
6434;SDS011;3250;42.694;23.278;2022-08-11T02:28:54;9.52;;;5.00;;
6434;SDS011;3250;42.694;23.278;2022-08-11T02:31:32;4.57;;;3.90;;
6434;SDS011;3250;42.694;23.278;2022-08-11T02:34:41;5.85;;;4.28;;
6434;SDS011;3250;42.694;23.278;2022-08-11T03:13:55;11.93;;;5.50;;
6434;SDS011;3250;42.694;23.278;2022-08-11T03:17:15;10.77;;;5.38;;
6434;SDS011;3250;42.694;23.278;2022-08-11T03:26:04;9.07;;;5.60;;
6434;SDS011;3250;42.694;23.278;2022-08-11T03:28:44;7.38;;;4.82;;
6434;SDS011;3250;42.694;23.278;2022-08-11T03:32:03;6.57;;;5.13;;
6434;SDS011;3250;42.694;23.278;2022-08-11T03:34:21;11.57;;;5.15;;
6434;SDS011;3250;42.694;23.278;2022-08-11T03:37:04;9.18;;;5.05;;
6434;SDS011;3250;42.694;23.278;2022-08-11T03:43:02;9.88;;;5.07;;
6434;SDS011;3250;42.694;23.278;2022-08-11T03:51:02;7.85;;;5.30;;
6434;SDS011;3250;42.694;23.278;2022-08-11T04:57:40;13.88;;;5.88;;
6434;SDS011;3250;42.694;23.278;2022-08-11T05:00:29;12.25;;;5.70;;
6434;SDS011;3250;42.694;23.278;2022-08-11T05:09:10;12.65;;;6.03;;
6434;SDS011;3250;42.694;23.278;2022-08-11T05:14:38;8.70;;;5.43;;
6434;SDS011;3250;42.694;23.278;2022-08-11T05:17:35;8.10;;;5.05;;
6434;SDS011;3250;42.694;23.278;2022-08-11T05:20:49;7.50;;;4.82;;
6434;SDS011;3250;42.694;23.278;2022-08-11T05:23:39;6.82;;;4.93;;
6434;SDS011;3250;42.694;23.278;2022-08-11T05:26:28;12.55;;;5.45;;
6434;SDS011;3250;42.694;23.278;2022-08-11T05:29:26;7.85;;;5.03;;
6434;SDS011;3250;42.694;23.278;2022-08-11T05:32:20;9.52;;;4.60;;
6434;SDS011;3250;42.694;23.278;2022-08-11T05:35:07;5.65;;;4.60;;
6434;SDS011;3250;42.694;23.278;2022-08-11T05:37:41;6.97;;;4.45;;
6434;SDS011;3250;42.694;23.278;2022-08-11T05:40:27;6.55;;;4.40;;
6434;SDS011;3250;42.694;23.278;2022-08-11T05:43:13;17.60;;;4.78;;
6434;SDS011;3250;42.694;23.278;2022-08-11T05:46:02;6.10;;;4.35;;
6434;SDS011;3250;42.694;23.278;2022-08-11T05:48:47;7.57;;;4.25;;
6434;SDS011;3250;42.694;23.278;2022-08-11T05:51:38;7.45;;;4.57;;
6434;SDS011;3250;42.694;23.278;2022-08-11T05:54:25;7.20;;;4.65;;
6434;SDS011;3250;42.694;23.278;2022-08-11T05:57:18;7.22;;;4.38;;
6434;SDS011;3250;42.694;23.278;2022-08-11T05:59:46;5.65;;;4.28;;
6434;SDS011;3250;42.694;23.278;2022-08-11T06:02:12;5.53;;;4.57;;
6434;SDS011;3250;42.694;23.278;2022-08-11T06:04:39;6.07;;;4.25;;
6434;SDS011;3250;42.694;23.278;2022-08-11T06:07:05;7.90;;;4.78;;
6434;SDS011;3250;42.694;23.278;2022-08-11T06:09:37;6.15;;;3.95;;
6434;SDS011;3250;42.694;23.278;2022-08-11T06:12:16;5.07;;;3.83;;
6434;SDS011;3250;42.694;23.278;2022-08-11T06:14:44;6.13;;;3.83;;
6434;SDS011;3250;42.694;23.278;2022-08-11T06:17:11;4.97;;;3.50;;
6434;SDS011;3250;42.694;23.278;2022-08-11T06:19:41;8.02;;;4.13;;
6434;SDS011;3250;42.694;23.278;2022-08-11T06:22:12;4.13;;;3.58;;
6434;SDS011;3250;42.694;23.278;2022-08-11T06:24:50;5.72;;;3.92;;
6434;SDS011;3250;42.694;23.278;2022-08-11T06:27:20;5.70;;;3.60;;
6434;SDS011;3250;42.694;23.278;2022-08-11T06:29:49;6.68;;;4.25;;
6434;SDS011;3250;42.694;23.278;2022-08-11T06:32:15;5.63;;;4.07;;
6434;SDS011;3250;42.694;23.278;2022-08-11T06:43:00;4.93;;;4.20;;
6434;SDS011;3250;42.694;23.278;2022-08-11T06:45:47;5.78;;;3.65;;
6434;SDS011;3250;42.694;23.278;2022-08-11T06:48:15;4.10;;;3.55;;
6434;SDS011;3250;42.694;23.278;2022-08-11T06:50:47;6.93;;;4.10;;
6434;SDS011;3250;42.694;23.278;2022-08-11T06:53:32;5.13;;;3.78;;
6434;SDS011;3250;42.694;23.278;2022-08-11T06:55:59;5.25;;;4.18;;
6434;SDS011;3250;42.694;23.278;2022-08-11T06:58:51;5.03;;;4.10;;
6434;SDS011;3250;42.694;23.278;2022-08-11T07:04:40;3.50;;;3.20;;
6434;SDS011;3250;42.694;23.278;2022-08-11T07:12:49;7.80;;;3.92;;
6434;SDS011;3250;42.694;23.278;2022-08-11T07:15:36;5.10;;;3.22;;
6434;SDS011;3250;42.694;23.278;2022-08-11T07:18:05;4.18;;;3.50;;
6434;SDS011;3250;42.694;23.278;2022-08-11T07:20:53;5.53;;;4.47;;
6434;SDS011;3250;42.694;23.278;2022-08-11T07:24:10;5.55;;;3.55;;
6434;SDS011;3250;42.694;23.278;2022-08-11T07:26:58;3.60;;;3.30;;
6434;SDS011;3250;42.694;23.278;2022-08-11T07:29:44;5.85;;;3.50;;
6434;SDS011;3250;42.694;23.278;2022-08-11T07:32:14;6.20;;;4.47;;
6434;SDS011;3250;42.694;23.278;2022-08-11T07:34:49;4.22;;;3.42;;
6434;SDS011;3250;42.694;23.278;2022-08-11T07:37:19;5.95;;;3.90;;
6434;SDS011;3250;42.694;23.278;2022-08-11T07:39:48;4.10;;;3.70;;
6434;SDS011;3250;42.694;23.278;2022-08-11T07:42:20;3.50;;;3.20;;
6434;SDS011;3250;42.694;23.278;2022-08-11T07:44:47;6.38;;;3.10;;
6434;SDS011;3250;42.694;23.278;2022-08-11T07:47:33;3.92;;;3.08;;
6434;SDS011;3250;42.694;23.278;2022-08-11T07:50:19;5.13;;;3.42;;
6434;SDS011;3250;42.694;23.278;2022-08-11T07:53:03;6.40;;;3.03;;
6434;SDS011;3250;42.694;23.278;2022-08-11T07:55:29;3.70;;;2.92;;
6434;SDS011;3250;42.694;23.278;2022-08-11T07:57:56;5.38;;;3.13;;
6434;SDS011;3250;42.694;23.278;2022-08-11T08:00:47;4.43;;;3.15;;
6434;SDS011;3250;42.694;23.278;2022-08-11T08:03:33;10.27;;;2.92;;
6434;SDS011;3250;42.694;23.278;2022-08-11T08:06:17;3.05;;;2.78;;
6434;SDS011;3250;42.694;23.278;2022-08-11T08:09:02;3.05;;;2.70;;
6434;SDS011;3250;42.694;23.278;2022-08-11T08:11:49;7.30;;;2.92;;
6434;SDS011;3250;42.694;23.278;2022-08-11T08:14:33;4.57;;;3.30;;
6434;SDS011;3250;42.694;23.278;2022-08-11T08:17:18;4.72;;;3.00;;
6434;SDS011;3250;42.694;23.278;2022-08-11T08:20:04;5.55;;;3.65;;
6434;SDS011;3250;42.694;23.278;2022-08-11T08:22:34;10.82;;;3.60;;
6434;SDS011;3250;42.694;23.278;2022-08-11T08:25:00;3.28;;;2.97;;
6434;SDS011;3250;42.694;23.278;2022-08-11T08:27:26;2.92;;;2.60;;
6434;SDS011;3250;42.694;23.278;2022-08-11T08:29:52;4.25;;;2.90;;
6434;SDS011;3250;42.694;23.278;2022-08-11T08:32:39;5.28;;;3.25;;
6434;SDS011;3250;42.694;23.278;2022-08-11T08:35:06;7.30;;;3.10;;
6434;SDS011;3250;42.694;23.278;2022-08-11T08:37:34;3.67;;;2.78;;
6434;SDS011;3250;42.694;23.278;2022-08-11T08:40:00;3.67;;;3.28;;
6434;SDS011;3250;42.694;23.278;2022-08-11T08:42:26;4.53;;;3.10;;
6434;SDS011;3250;42.694;23.278;2022-08-11T08:45:07;4.47;;;2.58;;
6434;SDS011;3250;42.694;23.278;2022-08-11T08:47:36;5.13;;;3.40;;
6434;SDS011;3250;42.694;23.278;2022-08-11T08:50:07;7.93;;;3.22;;
6434;SDS011;3250;42.694;23.278;2022-08-11T08:52:38;6.38;;;3.10;;
6434;SDS011;3250;42.694;23.278;2022-08-11T08:55:10;3.72;;;3.30;;
6434;SDS011;3250;42.694;23.278;2022-08-11T08:57:42;5.40;;;3.88;;
6434;SDS011;3250;42.694;23.278;2022-08-11T09:00:10;5.10;;;2.92;;
6434;SDS011;3250;42.694;23.278;2022-08-11T09:02:39;4.88;;;3.05;;
6434;SDS011;3250;42.694;23.278;2022-08-11T09:05:06;4.10;;;3.70;;
6434;SDS011;3250;42.694;23.278;2022-08-11T09:07:34;5.88;;;3.75;;
6434;SDS011;3250;42.694;23.278;2022-08-11T09:10:00;3.33;;;3.00;;
6434;SDS011;3250;42.694;23.278;2022-08-11T09:12:28;9.98;;;3.10;;
6434;SDS011;3250;42.694;23.278;2022-08-11T09:14:56;4.38;;;3.35;;
6434;SDS011;3250;42.694;23.278;2022-08-11T09:17:28;3.20;;;2.90;;
6434;SDS011;3250;42.694;23.278;2022-08-11T09:20:00;2.83;;;2.63;;
6434;SDS011;3250;42.694;23.278;2022-08-11T09:22:33;3.15;;;2.83;;
6434;SDS011;3250;42.694;23.278;2022-08-11T09:25:19;2.97;;;2.67;;
6434;SDS011;3250;42.694;23.278;2022-08-11T09:28:09;4.88;;;2.95;;
6434;SDS011;3250;42.694;23.278;2022-08-11T09:30:36;23.55;;;3.72;;
6434;SDS011;3250;42.694;23.278;2022-08-11T09:33:05;73.68;;;6.07;;
6434;SDS011;3250;42.694;23.278;2022-08-11T09:35:34;64.25;;;8.35;;
6434;SDS011;3250;42.694;23.278;2022-08-11T09:38:03;58.20;;;8.35;;
6434;SDS011;3250;42.694;23.278;2022-08-11T09:40:49;66.90;;;7.25;;
6434;SDS011;3250;42.694;23.278;2022-08-11T09:43:16;7.18;;;4.47;;
6434;SDS011;3250;42.694;23.278;2022-08-11T09:46:12;5.35;;;3.45;;
6434;SDS011;3250;42.694;23.278;2022-08-11T09:48:39;6.90;;;3.47;;
6434;SDS011;3250;42.694;23.278;2022-08-11T09:51:07;48.08;;;5.03;;
6434;SDS011;3250;42.694;23.278;2022-08-11T09:53:38;10.75;;;4.47;;
6434;SDS011;3250;42.694;23.278;2022-08-11T09:56:12;5.78;;;4.70;;
6434;SDS011;3250;42.694;23.278;2022-08-11T09:58:58;5.25;;;3.00;;
6434;SDS011;3250;42.694;23.278;2022-08-11T10:01:28;93.57;;;10.68;;
6434;SDS011;3250;42.694;23.278;2022-08-11T10:04:03;1999.90;;;999.90;;
6434;SDS011;3250;42.694;23.278;2022-08-11T10:06:47;1999.90;;;999.90;;
6434;SDS011;3250;42.694;23.278;2022-08-11T10:09:27;1999.90;;;999.90;;
6434;SDS011;3250;42.694;23.278;2022-08-11T10:11:58;1999.90;;;999.90;;
6434;SDS011;3250;42.694;23.278;2022-08-11T10:14:27;1999.90;;;999.90;;
6434;SDS011;3250;42.694;23.278;2022-08-11T10:17:13;1999.90;;;999.90;;
6434;SDS011;3250;42.694;23.278;2022-08-11T10:19:41;1999.90;;;999.90;;
6434;SDS011;3250;42.694;23.278;2022-08-11T10:22:10;1999.90;;;999.90;;
6434;SDS011;3250;42.694;23.278;2022-08-11T10:24:57;1999.90;;;999.90;;
6434;SDS011;3250;42.694;23.278;2022-08-11T10:27:42;1999.90;;;999.90;;
6434;SDS011;3250;42.694;23.278;2022-08-11T10:30:08;1999.90;;;999.90;;
6434;SDS011;3250;42.694;23.278;2022-08-11T10:32:54;1999.90;;;999.90;;
6434;SDS011;3250;42.694;23.278;2022-08-11T10:35:41;1999.90;;;999.90;;
6434;SDS011;3250;42.694;23.278;2022-08-11T10:38:09;1999.90;;;999.90;;
6434;SDS011;3250;42.694;23.278;2022-08-11T10:40:40;1999.90;;;999.90;;
6434;SDS011;3250;42.694;23.278;2022-08-11T10:43:10;372.80;;;331.02;;
6434;SDS011;3250;42.694;23.278;2022-08-11T10:45:38;3.47;;;2.78;;
6434;SDS011;3250;42.694;23.278;2022-08-11T10:48:24;98.65;;;93.07;;
6434;SDS011;3250;42.694;23.278;2022-08-11T10:50:52;5.50;;;3.72;;
6434;SDS011;3250;42.694;23.278;2022-08-11T10:53:37;763.63;;;712.70;;
6434;SDS011;3250;42.694;23.278;2022-08-11T10:56:24;1077.43;;;994.05;;
6434;SDS011;3250;42.694;23.278;2022-08-11T10:59:12;791.95;;;724.97;;
6434;SDS011;3250;42.694;23.278;2022-08-11T11:01:41;1222.90;;;999.90;;
6434;SDS011;3250;42.694;23.278;2022-08-11T11:04:15;1716.15;;;999.90;;
6434;SDS011;3250;42.694;23.278;2022-08-11T11:11:58;1999.90;;;999.90;;
6434;SDS011;3250;42.694;23.278;2022-08-11T11:14:50;1999.90;;;999.90;;
6434;SDS011;3250;42.694;23.278;2022-08-11T11:18:18;0.45;;;0.45;;
6434;SDS011;3250;42.694;23.278;2022-08-11T11:23:18;7.30;;;3.42;;
6434;SDS011;3250;42.694;23.278;2022-08-11T11:32:20;1999.90;;;999.90;;
6434;SDS011;3250;42.694;23.278;2022-08-11T11:37:36;1999.90;;;999.90;;
6434;SDS011;3250;42.694;23.278;2022-08-11T11:40:10;1999.90;;;999.90;;
6434;SDS011;3250;42.694;23.278;2022-08-11T11:42:41;1999.90;;;999.90;;
6434;SDS011;3250;42.694;23.278;2022-08-11T11:45:09;1999.90;;;999.90;;
6434;SDS011;3250;42.694;23.278;2022-08-11T11:47:38;1999.90;;;999.90;;
6434;SDS011;3250;42.694;23.278;2022-08-11T11:50:04;1999.90;;;999.90;;
6434;SDS011;3250;42.694;23.278;2022-08-11T11:52:31;0.70;;;0.55;;
6434;SDS011;3250;42.694;23.278;2022-08-11T11:54:57;1227.03;;;999.90;;
6434;SDS011;3250;42.694;23.278;2022-08-11T11:57:24;1267.10;;;999.90;;
6434;SDS011;3250;42.694;23.278;2022-08-11T12:00:10;1601.68;;;999.90;;
6434;SDS011;3250;42.694;23.278;2022-08-11T12:02:57;1177.20;;;999.90;;
6434;SDS011;3250;42.694;23.278;2022-08-11T12:05:24;892.00;;;822.42;;
6434;SDS011;3250;42.694;23.278;2022-08-11T12:07:51;262.55;;;247.43;;
6434;SDS011;3250;42.694;23.278;2022-08-11T12:10:35;14.45;;;13.52;;
6434;SDS011;3250;42.694;23.278;2022-08-11T12:13:01;15.85;;;14.43;;
6434;SDS011;3250;42.694;23.278;2022-08-11T12:15:46;58.53;;;55.47;;
6434;SDS011;3250;42.694;23.278;2022-08-11T12:18:13;398.75;;;377.95;;
6434;SDS011;3250;42.694;23.278;2022-08-11T12:20:40;569.85;;;537.13;;
6434;SDS011;3250;42.694;23.278;2022-08-11T12:23:08;651.75;;;613.10;;
6434;SDS011;3250;42.694;23.278;2022-08-11T12:25:53;102.53;;;96.90;;
6434;SDS011;3250;42.694;23.278;2022-08-11T12:28:37;4.47;;;2.70;;
6434;SDS011;3250;42.694;23.278;2022-08-11T12:31:04;6.03;;;3.42;;
6434;SDS011;3250;42.694;23.278;2022-08-11T12:33:33;3.00;;;2.67;;
6434;SDS011;3250;42.694;23.278;2022-08-11T12:36:00;3.30;;;3.00;;
6434;SDS011;3250;42.694;23.278;2022-08-11T12:38:26;5.35;;;2.55;;
6434;SDS011;3250;42.694;23.278;2022-08-11T12:40:52;3.97;;;2.85;;
6434;SDS011;3250;42.694;23.278;2022-08-11T12:43:37;2.78;;;2.55;;
6434;SDS011;3250;42.694;23.278;2022-08-11T12:46:28;1999.90;;;999.90;;
6434;SDS011;3250;42.694;23.278;2022-08-11T12:48:57;1999.90;;;999.90;;
6434;SDS011;3250;42.694;23.278;2022-08-11T12:51:48;1999.90;;;999.90;;
6434;SDS011;3250;42.694;23.278;2022-08-11T12:56:57;322.92;;;301.63;;
6434;SDS011;3250;42.694;23.278;2022-08-11T12:59:43;61.88;;;5.53;;
6434;SDS011;3250;42.694;23.278;2022-08-11T13:02:28;4.15;;;2.35;;
6434;SDS011;3250;42.694;23.278;2022-08-11T13:05:13;2.70;;;1.98;;
6434;SDS011;3250;42.694;23.278;2022-08-11T13:07:41;4.60;;;2.55;;
6434;SDS011;3250;42.694;23.278;2022-08-11T13:10:08;3.80;;;2.30;;
6434;SDS011;3250;42.694;23.278;2022-08-11T13:12:35;4.18;;;2.30;;
6434;SDS011;3250;42.694;23.278;2022-08-11T13:15:22;3.25;;;2.38;;
6434;SDS011;3250;42.694;23.278;2022-08-11T13:17:50;4.90;;;2.30;;
6434;SDS011;3250;42.694;23.278;2022-08-11T13:20:20;3.15;;;2.25;;
6434;SDS011;3250;42.694;23.278;2022-08-11T13:22:48;6.90;;;2.80;;
6434;SDS011;3250;42.694;23.278;2022-08-11T13:25:17;3.90;;;2.20;;
6434;SDS011;3250;42.694;23.278;2022-08-11T13:27:45;6.70;;;2.90;;
6434;SDS011;3250;42.694;23.278;2022-08-11T13:30:15;2.75;;;2.10;;
6434;SDS011;3250;42.694;23.278;2022-08-11T13:33:00;3.05;;;2.42;;
6434;SDS011;3250;42.694;23.278;2022-08-11T13:35:28;5.82;;;2.20;;
6434;SDS011;3250;42.694;23.278;2022-08-11T13:37:55;4.85;;;2.53;;
6434;SDS011;3250;42.694;23.278;2022-08-11T13:40:22;3.10;;;2.47;;
6434;SDS011;3250;42.694;23.278;2022-08-11T13:42:49;4.22;;;2.70;;
6434;SDS011;3250;42.694;23.278;2022-08-11T13:45:16;2.70;;;2.50;;
6434;SDS011;3250;42.694;23.278;2022-08-11T13:47:43;2.15;;;1.95;;
6434;SDS011;3250;42.694;23.278;2022-08-11T13:50:09;2.65;;;2.45;;
6434;SDS011;3250;42.694;23.278;2022-08-11T13:52:37;4.88;;;2.28;;
6434;SDS011;3250;42.694;23.278;2022-08-11T13:55:05;5.93;;;2.50;;
6434;SDS011;3250;42.694;23.278;2022-08-11T13:57:32;6.13;;;2.40;;
6434;SDS011;3250;42.694;23.278;2022-08-11T13:59:59;2.33;;;1.90;;
6434;SDS011;3250;42.694;23.278;2022-08-11T14:02:37;4.05;;;2.35;;
6434;SDS011;3250;42.694;23.278;2022-08-11T14:05:07;2.50;;;2.30;;
6434;SDS011;3250;42.694;23.278;2022-08-11T14:07:37;4.63;;;2.50;;
6434;SDS011;3250;42.694;23.278;2022-08-11T14:10:06;2.55;;;2.17;;
6434;SDS011;3250;42.694;23.278;2022-08-11T14:12:34;2.22;;;2.03;;
6434;SDS011;3250;42.694;23.278;2022-08-11T14:20:38;2.97;;;2.10;;
6434;SDS011;3250;42.694;23.278;2022-08-11T14:23:25;2.58;;;2.30;;
6434;SDS011;3250;42.694;23.278;2022-08-11T14:25:53;3.05;;;2.38;;
6434;SDS011;3250;42.694;23.278;2022-08-11T14:28:38;3.72;;;2.45;;
6434;SDS011;3250;42.694;23.278;2022-08-11T14:31:05;3.25;;;2.92;;
6434;SDS011;3250;42.694;23.278;2022-08-11T14:33:32;3.67;;;2.45;;
6434;SDS011;3250;42.694;23.278;2022-08-11T14:35:59;3.10;;;2.80;;
6434;SDS011;3250;42.694;23.278;2022-08-11T14:38:27;35.88;;;4.63;;
6434;SDS011;3250;42.694;23.278;2022-08-11T14:40:53;2.90;;;2.17;;
6434;SDS011;3250;42.694;23.278;2022-08-11T14:43:39;10.30;;;4.03;;
6434;SDS011;3250;42.694;23.278;2022-08-11T14:46:23;3.05;;;2.75;;
6434;SDS011;3250;42.694;23.278;2022-08-11T14:49:08;4.25;;;2.63;;
6434;SDS011;3250;42.694;23.278;2022-08-11T14:51:35;3.55;;;2.33;;
6434;SDS011;3250;42.694;23.278;2022-08-11T14:54:01;4.95;;;2.47;;
6434;SDS011;3250;42.694;23.278;2022-08-11T14:56:47;3.30;;;3.00;;
6434;SDS011;3250;42.694;23.278;2022-08-11T14:59:12;3.97;;;3.10;;
6434;SDS011;3250;42.694;23.278;2022-08-11T15:01:38;3.22;;;2.92;;
6434;SDS011;3250;42.694;23.278;2022-08-11T15:04:22;4.43;;;2.97;;
6434;SDS011;3250;42.694;23.278;2022-08-11T15:06:49;3.63;;;2.92;;
6434;SDS011;3250;42.694;23.278;2022-08-11T15:09:15;2.80;;;2.60;;
6434;SDS011;3250;42.694;23.278;2022-08-11T15:11:42;4.57;;;3.10;;
6434;SDS011;3250;42.694;23.278;2022-08-11T15:14:27;3.47;;;2.78;;
6434;SDS011;3250;42.694;23.278;2022-08-11T15:17:11;4.20;;;2.70;;
6434;SDS011;3250;42.694;23.278;2022-08-11T15:19:39;3.08;;;2.60;;
6434;SDS011;3250;42.694;23.278;2022-08-11T15:22:30;3.20;;;2.70;;
6434;SDS011;3250;42.694;23.278;2022-08-11T15:25:14;3.00;;;2.80;;
6434;SDS011;3250;42.694;23.278;2022-08-11T15:27:40;5.30;;;2.95;;
6434;SDS011;3250;42.694;23.278;2022-08-11T15:30:27;4.22;;;3.03;;
6434;SDS011;3250;42.694;23.278;2022-08-11T15:33:13;3.75;;;2.58;;
6434;SDS011;3250;42.694;23.278;2022-08-11T15:36:00;3.13;;;2.63;;
6434;SDS011;3250;42.694;23.278;2022-08-11T15:38:48;6.20;;;2.40;;
6434;SDS011;3250;42.694;23.278;2022-08-11T15:41:42;3.63;;;2.60;;
6434;SDS011;3250;42.694;23.278;2022-08-11T15:44:32;4.65;;;2.70;;
6434;SDS011;3250;42.694;23.278;2022-08-11T15:47:20;5.43;;;2.42;;
6434;SDS011;3250;42.694;23.278;2022-08-11T15:49:50;6.20;;;2.25;;
6434;SDS011;3250;42.694;23.278;2022-08-11T15:52:22;4.22;;;2.53;;
6434;SDS011;3250;42.694;23.278;2022-08-11T15:54:53;3.22;;;2.50;;
6434;SDS011;3250;42.694;23.278;2022-08-11T15:57:23;2.58;;;2.20;;
6434;SDS011;3250;42.694;23.278;2022-08-11T16:00:09;2.67;;;2.38;;
6434;SDS011;3250;42.694;23.278;2022-08-11T16:02:53;3.35;;;2.60;;
6434;SDS011;3250;42.694;23.278;2022-08-11T16:05:40;4.03;;;2.70;;
6434;SDS011;3250;42.694;23.278;2022-08-11T16:08:07;3.10;;;2.58;;
6434;SDS011;3250;42.694;23.278;2022-08-11T16:10:33;2.33;;;2.13;;
6434;SDS011;3250;42.694;23.278;2022-08-11T16:13:00;4.93;;;3.13;;
6434;SDS011;3250;42.694;23.278;2022-08-11T16:15:52;4.78;;;2.88;;
6434;SDS011;3250;42.694;23.278;2022-08-11T16:18:52;3.40;;;2.70;;
6434;SDS011;3250;42.694;23.278;2022-08-11T16:21:24;5.43;;;3.80;;
6434;SDS011;3250;42.694;23.278;2022-08-11T16:23:53;3.72;;;2.83;;
6434;SDS011;3250;42.694;23.278;2022-08-11T16:26:21;5.95;;;2.92;;
6434;SDS011;3250;42.694;23.278;2022-08-11T16:28:52;5.25;;;3.42;;
6434;SDS011;3250;42.694;23.278;2022-08-11T16:31:20;3.95;;;2.63;;
6434;SDS011;3250;42.694;23.278;2022-08-11T16:33:47;4.85;;;2.70;;
6434;SDS011;3250;42.694;23.278;2022-08-11T16:36:15;7.28;;;2.65;;
6434;SDS011;3250;42.694;23.278;2022-08-11T16:39:01;4.97;;;2.85;;
6434;SDS011;3250;42.694;23.278;2022-08-11T16:41:29;3.33;;;2.60;;
6434;SDS011;3250;42.694;23.278;2022-08-11T16:44:14;4.53;;;3.33;;
6434;SDS011;3250;42.694;23.278;2022-08-11T16:47:00;3.10;;;2.70;;
6434;SDS011;3250;42.694;23.278;2022-08-11T16:49:37;4.45;;;2.60;;
6434;SDS011;3250;42.694;23.278;2022-08-11T16:52:10;3.33;;;2.90;;
6434;SDS011;3250;42.694;23.278;2022-08-11T16:54:37;5.88;;;2.88;;
6434;SDS011;3250;42.694;23.278;2022-08-11T16:57:09;4.18;;;3.03;;
6434;SDS011;3250;42.694;23.278;2022-08-11T16:59:57;4.00;;;3.08;;
6434;SDS011;3250;42.694;23.278;2022-08-11T17:02:36;4.38;;;2.85;;
6434;SDS011;3250;42.694;23.278;2022-08-11T17:05:25;5.60;;;2.80;;
6434;SDS011;3250;42.694;23.278;2022-08-11T17:08:11;3.15;;;2.78;;
6434;SDS011;3250;42.694;23.278;2022-08-11T17:10:58;2.35;;;2.15;;
6434;SDS011;3250;42.694;23.278;2022-08-11T17:16:19;3.95;;;2.70;;
6434;SDS011;3250;42.694;23.278;2022-08-11T17:18:59;7.85;;;2.42;;
6434;SDS011;3250;42.694;23.278;2022-08-11T17:21:30;2.53;;;2.33;;
6434;SDS011;3250;42.694;23.278;2022-08-11T17:24:05;8.50;;;3.05;;
6434;SDS011;3250;42.694;23.278;2022-08-11T17:26:40;3.38;;;3.03;;
6434;SDS011;3250;42.694;23.278;2022-08-11T17:29:33;3.83;;;2.58;;
6434;SDS011;3250;42.694;23.278;2022-08-11T17:32:03;6.95;;;2.88;;
6434;SDS011;3250;42.694;23.278;2022-08-11T17:34:49;4.07;;;2.88;;
6434;SDS011;3250;42.694;23.278;2022-08-11T17:37:37;5.15;;;2.42;;
6434;SDS011;3250;42.694;23.278;2022-08-11T17:40:08;4.00;;;2.75;;
6434;SDS011;3250;42.694;23.278;2022-08-11T17:42:36;4.25;;;2.67;;
6434;SDS011;3250;42.694;23.278;2022-08-11T17:45:21;2.67;;;2.33;;
6434;SDS011;3250;42.694;23.278;2022-08-11T17:48:06;6.88;;;2.92;;
6434;SDS011;3250;42.694;23.278;2022-08-11T17:50:55;2.60;;;2.40;;
6434;SDS011;3250;42.694;23.278;2022-08-11T17:53:24;5.88;;;2.95;;
6434;SDS011;3250;42.694;23.278;2022-08-11T17:56:10;3.30;;;3.00;;
6434;SDS011;3250;42.694;23.278;2022-08-11T17:58:58;3.10;;;2.63;;
6434;SDS011;3250;42.694;23.278;2022-08-11T18:01:43;3.65;;;2.42;;
6434;SDS011;3250;42.694;23.278;2022-08-11T18:04:11;5.40;;;2.58;;
6434;SDS011;3250;42.694;23.278;2022-08-11T18:06:38;5.22;;;2.60;;
6434;SDS011;3250;42.694;23.278;2022-08-11T18:09:10;3.92;;;3.20;;
6434;SDS011;3250;42.694;23.278;2022-08-11T18:12:03;5.20;;;2.85;;
6434;SDS011;3250;42.694;23.278;2022-08-11T18:14:50;4.15;;;2.67;;
6434;SDS011;3250;42.694;23.278;2022-08-11T18:17:36;3.28;;;2.40;;
6434;SDS011;3250;42.694;23.278;2022-08-11T18:20:22;3.08;;;2.78;;
6434;SDS011;3250;42.694;23.278;2022-08-11T18:23:08;3.75;;;2.70;;
6434;SDS011;3250;42.694;23.278;2022-08-11T18:25:58;3.30;;;2.30;;
6434;SDS011;3250;42.694;23.278;2022-08-11T18:28:45;5.57;;;2.47;;
6434;SDS011;3250;42.694;23.278;2022-08-11T18:31:35;2.58;;;2.38;;
6434;SDS011;3250;42.694;23.278;2022-08-11T18:34:23;2.60;;;2.40;;
6434;SDS011;3250;42.694;23.278;2022-08-11T18:37:14;3.38;;;2.80;;
6434;SDS011;3250;42.694;23.278;2022-08-11T18:40:07;2.70;;;2.50;;
6434;SDS011;3250;42.694;23.278;2022-08-11T18:43:06;5.47;;;2.75;;
6434;SDS011;3250;42.694;23.278;2022-08-11T18:46:03;4.25;;;2.42;;
6434;SDS011;3250;42.694;23.278;2022-08-11T18:48:50;3.70;;;2.80;;
6434;SDS011;3250;42.694;23.278;2022-08-11T18:51:37;8.35;;;3.80;;
6434;SDS011;3250;42.694;23.278;2022-08-11T18:54:23;3.20;;;2.80;;
6434;SDS011;3250;42.694;23.278;2022-08-11T18:57:09;5.28;;;3.22;;
6434;SDS011;3250;42.694;23.278;2022-08-11T18:59:57;3.55;;;2.90;;
6434;SDS011;3250;42.694;23.278;2022-08-11T19:02:43;6.75;;;2.63;;
6434;SDS011;3250;42.694;23.278;2022-08-11T19:05:29;4.05;;;2.53;;
6434;SDS011;3250;42.694;23.278;2022-08-11T19:08:14;4.55;;;3.47;;
6434;SDS011;3250;42.694;23.278;2022-08-11T19:11:02;3.22;;;2.90;;
6434;SDS011;3250;42.694;23.278;2022-08-11T19:13:47;4.10;;;2.85;;
6434;SDS011;3250;42.694;23.278;2022-08-11T19:16:32;4.88;;;2.30;;
6434;SDS011;3250;42.694;23.278;2022-08-11T19:19:19;3.53;;;2.60;;
6434;SDS011;3250;42.694;23.278;2022-08-11T19:22:03;2.95;;;2.67;;
6434;SDS011;3250;42.694;23.278;2022-08-11T19:24:48;4.40;;;3.08;;
6434;SDS011;3250;42.694;23.278;2022-08-11T19:27:34;3.53;;;2.65;;
6434;SDS011;3250;42.694;23.278;2022-08-11T19:30:20;4.70;;;2.60;;
6434;SDS011;3250;42.694;23.278;2022-08-11T19:33:04;4.53;;;3.30;;
6434;SDS011;3250;42.694;23.278;2022-08-11T19:35:49;5.15;;;2.25;;
6434;SDS011;3250;42.694;23.278;2022-08-11T19:38:33;4.20;;;2.67;;
6434;SDS011;3250;42.694;23.278;2022-08-11T19:41:19;3.17;;;2.50;;
6434;SDS011;3250;42.694;23.278;2022-08-11T19:44:06;4.35;;;2.97;;
6434;SDS011;3250;42.694;23.278;2022-08-11T19:46:51;3.80;;;2.60;;
6434;SDS011;3250;42.694;23.278;2022-08-11T19:49:37;4.25;;;2.88;;
6434;SDS011;3250;42.694;23.278;2022-08-11T19:52:24;7.03;;;3.00;;
6434;SDS011;3250;42.694;23.278;2022-08-11T19:55:09;5.20;;;3.03;;
6434;SDS011;3250;42.694;23.278;2022-08-11T19:57:54;3.63;;;2.97;;
6434;SDS011;3250;42.694;23.278;2022-08-11T20:00:40;3.78;;;2.60;;
6434;SDS011;3250;42.694;23.278;2022-08-11T20:03:24;3.83;;;2.80;;
6434;SDS011;3250;42.694;23.278;2022-08-11T20:06:08;6.32;;;2.72;;
6434;SDS011;3250;42.694;23.278;2022-08-11T20:08:55;5.40;;;3.25;;
6434;SDS011;3250;42.694;23.278;2022-08-11T20:11:47;3.60;;;2.60;;